sensor_id;sensor_type;location;lat;lon;timestamp;temperature;humidity
43143;DHT22;28750;59.842;17.584;2023-03-01T00:01:20;-0.40;99.90
43143;DHT22;28750;59.842;17.584;2023-03-01T00:03:48;-0.30;99.90
43143;DHT22;28750;59.842;17.584;2023-03-01T00:06:15;-0.30;99.90
43143;DHT22;28750;59.842;17.584;2023-03-01T00:08:42;-0.20;99.90
43143;DHT22;28750;59.842;17.584;2023-03-01T00:11:21;-0.20;99.90
43143;DHT22;28750;59.842;17.584;2023-03-01T00:13:51;-0.20;99.90
43143;DHT22;28750;59.842;17.584;2023-03-01T00:16:24;-0.30;99.90
43143;DHT22;28750;59.842;17.584;2023-03-01T00:18:51;-0.20;99.90
43143;DHT22;28750;59.842;17.584;2023-03-01T00:21:20;-0.20;99.90
43143;DHT22;28750;59.842;17.584;2023-03-01T00:23:48;0.10;99.90
43143;DHT22;28750;59.842;17.584;2023-03-01T00:26:16;0.10;99.90
43143;DHT22;28750;59.842;17.584;2023-03-01T00:28:44;0.00;99.90
43143;DHT22;28750;59.842;17.584;2023-03-01T00:31:31;-0.30;99.90
43143;DHT22;28750;59.842;17.584;2023-03-01T00:34:04;-0.50;99.90
43143;DHT22;28750;59.842;17.584;2023-03-01T00:36:34;-0.50;99.90
43143;DHT22;28750;59.842;17.584;2023-03-01T00:39:04;-0.60;99.90
43143;DHT22;28750;59.842;17.584;2023-03-01T00:41:31;-0.60;99.90
43143;DHT22;28750;59.842;17.584;2023-03-01T00:44:00;-0.50;99.90
43143;DHT22;28750;59.842;17.584;2023-03-01T00:46:27;-0.40;99.90
43143;DHT22;28750;59.842;17.584;2023-03-01T00:48:55;-0.50;99.90
43143;DHT22;28750;59.842;17.584;2023-03-01T00:51:25;-0.60;99.90
43143;DHT22;28750;59.842;17.584;2023-03-01T00:53:55;-0.70;99.90
43143;DHT22;28750;59.842;17.584;2023-03-01T00:56:23;-0.70;99.90
43143;DHT22;28750;59.842;17.584;2023-03-01T00:58:50;-0.70;99.90
43143;DHT22;28750;59.842;17.584;2023-03-01T01:01:23;-0.80;99.90
43143;DHT22;28750;59.842;17.584;2023-03-01T01:04:02;-0.60;99.90
43143;DHT22;28750;59.842;17.584;2023-03-01T01:06:33;-0.80;99.90
43143;DHT22;28750;59.842;17.584;2023-03-01T01:09:02;-0.70;99.90
43143;DHT22;28750;59.842;17.584;2023-03-01T01:11:29;-0.70;99.90
43143;DHT22;28750;59.842;17.584;2023-03-01T01:13:57;-0.90;99.90
43143;DHT22;28750;59.842;17.584;2023-03-01T01:16:27;-0.90;99.90
43143;DHT22;28750;59.842;17.584;2023-03-01T01:18:55;-0.80;99.90
43143;DHT22;28750;59.842;17.584;2023-03-01T01:21:23;-0.70;99.90
43143;DHT22;28750;59.842;17.584;2023-03-01T01:23:51;-0.60;99.90
43143;DHT22;28750;59.842;17.584;2023-03-01T01:26:21;-0.60;99.90
43143;DHT22;28750;59.842;17.584;2023-03-01T01:28:49;-0.50;99.90
43143;DHT22;28750;59.842;17.584;2023-03-01T01:31:17;-0.50;99.90
43143;DHT22;28750;59.842;17.584;2023-03-01T01:33:44;-0.50;99.90
43143;DHT22;28750;59.842;17.584;2023-03-01T01:36:11;-0.50;99.90
43143;DHT22;28750;59.842;17.584;2023-03-01T01:38:39;-0.50;99.90
43143;DHT22;28750;59.842;17.584;2023-03-01T01:41:09;-0.60;99.90
43143;DHT22;28750;59.842;17.584;2023-03-01T01:43:43;-0.60;99.90
43143;DHT22;28750;59.842;17.584;2023-03-01T01:48:59;-0.50;99.90
43143;DHT22;28750;59.842;17.584;2023-03-01T01:51:37;-0.60;99.90
43143;DHT22;28750;59.842;17.584;2023-03-01T01:54:30;-0.50;99.90
43143;DHT22;28750;59.842;17.584;2023-03-01T01:57:05;-0.50;99.90
43143;DHT22;28750;59.842;17.584;2023-03-01T01:59:34;-0.40;99.90
43143;DHT22;28750;59.842;17.584;2023-03-01T02:02:03;-0.40;99.90
43143;DHT22;28750;59.842;17.584;2023-03-01T02:04:32;-0.40;99.90
43143;DHT22;28750;59.842;17.584;2023-03-01T02:07:06;-0.50;99.90
43143;DHT22;28750;59.842;17.584;2023-03-01T02:09:35;-0.50;99.90
43143;DHT22;28750;59.842;17.584;2023-03-01T02:12:03;-0.60;99.90
43143;DHT22;28750;59.842;17.584;2023-03-01T02:14:30;-0.30;99.90
43143;DHT22;28750;59.842;17.584;2023-03-01T02:16:57;-0.30;99.90
43143;DHT22;28750;59.842;17.584;2023-03-01T02:22:20;-0.30;99.90
43143;DHT22;28750;59.842;17.584;2023-03-01T02:27:51;-0.30;99.90
43143;DHT22;28750;59.842;17.584;2023-03-01T02:30:22;-0.50;99.90
43143;DHT22;28750;59.842;17.584;2023-03-01T02:32:51;-0.50;99.90
43143;DHT22;28750;59.842;17.584;2023-03-01T02:35:20;-0.50;99.90
43143;DHT22;28750;59.842;17.584;2023-03-01T02:37:48;-0.50;99.90
43143;DHT22;28750;59.842;17.584;2023-03-01T02:40:17;-0.50;99.90
43143;DHT22;28750;59.842;17.584;2023-03-01T02:42:53;-0.50;99.90
43143;DHT22;28750;59.842;17.584;2023-03-01T02:45:21;-0.50;99.90
43143;DHT22;28750;59.842;17.584;2023-03-01T02:47:49;-0.50;99.90
43143;DHT22;28750;59.842;17.584;2023-03-01T02:55:28;-0.60;99.90
43143;DHT22;28750;59.842;17.584;2023-03-01T02:57:56;-0.60;99.90
43143;DHT22;28750;59.842;17.584;2023-03-01T03:00:28;-0.70;99.90
43143;DHT22;28750;59.842;17.584;2023-03-01T03:02:58;-0.70;99.90
43143;DHT22;28750;59.842;17.584;2023-03-01T03:05:27;-0.80;99.90
43143;DHT22;28750;59.842;17.584;2023-03-01T03:07:56;-0.70;99.90
43143;DHT22;28750;59.842;17.584;2023-03-01T03:10:27;-0.70;99.90
43143;DHT22;28750;59.842;17.584;2023-03-01T03:12:56;-0.90;99.90
43143;DHT22;28750;59.842;17.584;2023-03-01T03:15:24;-0.80;99.90
43143;DHT22;28750;59.842;17.584;2023-03-01T03:17:52;-0.80;99.90
43143;DHT22;28750;59.842;17.584;2023-03-01T03:20:23;-0.90;99.90
43143;DHT22;28750;59.842;17.584;2023-03-01T03:22:51;-0.80;99.90
43143;DHT22;28750;59.842;17.584;2023-03-01T03:25:20;-0.90;99.90
43143;DHT22;28750;59.842;17.584;2023-03-01T03:27:48;-0.90;99.90
43143;DHT22;28750;59.842;17.584;2023-03-01T03:30:24;-0.90;99.90
43143;DHT22;28750;59.842;17.584;2023-03-01T03:32:51;-0.90;99.90
43143;DHT22;28750;59.842;17.584;2023-03-01T03:35:30;-0.90;99.90
43143;DHT22;28750;59.842;17.584;2023-03-01T03:37:59;-0.70;99.90
43143;DHT22;28750;59.842;17.584;2023-03-01T03:40:40;-0.90;99.90
43143;DHT22;28750;59.842;17.584;2023-03-01T03:43:10;-0.90;99.90
43143;DHT22;28750;59.842;17.584;2023-03-01T03:45:37;-0.90;99.90
43143;DHT22;28750;59.842;17.584;2023-03-01T03:48:06;-0.70;99.90
43143;DHT22;28750;59.842;17.584;2023-03-01T03:50:34;-0.70;99.90
43143;DHT22;28750;59.842;17.584;2023-03-01T03:53:04;-0.80;99.90
43143;DHT22;28750;59.842;17.584;2023-03-01T03:55:32;-0.90;99.90
43143;DHT22;28750;59.842;17.584;2023-03-01T03:58:00;-0.90;99.90
43143;DHT22;28750;59.842;17.584;2023-03-01T04:00:36;-0.80;99.90
43143;DHT22;28750;59.842;17.584;2023-03-01T04:03:04;-0.70;99.90
43143;DHT22;28750;59.842;17.584;2023-03-01T04:05:31;-0.80;99.90
43143;DHT22;28750;59.842;17.584;2023-03-01T04:07:58;-0.70;99.90
43143;DHT22;28750;59.842;17.584;2023-03-01T04:10:30;-0.80;99.90
43143;DHT22;28750;59.842;17.584;2023-03-01T04:12:58;-0.70;99.90
43143;DHT22;28750;59.842;17.584;2023-03-01T04:15:27;-0.90;99.90
43143;DHT22;28750;59.842;17.584;2023-03-01T04:17:55;-1.00;99.90
43143;DHT22;28750;59.842;17.584;2023-03-01T04:20:28;-1.10;99.90
43143;DHT22;28750;59.842;17.584;2023-03-01T04:25:47;-1.20;99.90
43143;DHT22;28750;59.842;17.584;2023-03-01T04:28:20;-1.10;99.90
43143;DHT22;28750;59.842;17.584;2023-03-01T04:30:46;-1.20;99.90
43143;DHT22;28750;59.842;17.584;2023-03-01T04:33:13;-1.20;99.90
43143;DHT22;28750;59.842;17.584;2023-03-01T04:35:40;-1.00;99.90
43143;DHT22;28750;59.842;17.584;2023-03-01T04:38:08;-1.10;99.90
43143;DHT22;28750;59.842;17.584;2023-03-01T04:40:36;-1.10;99.90
43143;DHT22;28750;59.842;17.584;2023-03-01T04:43:03;-1.10;99.90
43143;DHT22;28750;59.842;17.584;2023-03-01T04:45:32;-1.10;99.90
43143;DHT22;28750;59.842;17.584;2023-03-01T04:48:00;-1.00;99.90
43143;DHT22;28750;59.842;17.584;2023-03-01T04:50:27;-1.10;99.90
43143;DHT22;28750;59.842;17.584;2023-03-01T04:52:55;-1.10;99.90
43143;DHT22;28750;59.842;17.584;2023-03-01T04:55:27;-1.00;99.90
43143;DHT22;28750;59.842;17.584;2023-03-01T04:57:55;-1.00;99.90
43143;DHT22;28750;59.842;17.584;2023-03-01T05:00:23;-1.00;99.90
43143;DHT22;28750;59.842;17.584;2023-03-01T05:02:52;-1.00;99.90
43143;DHT22;28750;59.842;17.584;2023-03-01T05:05:25;-1.00;99.90
43143;DHT22;28750;59.842;17.584;2023-03-01T05:07:58;-1.00;99.90
43143;DHT22;28750;59.842;17.584;2023-03-01T05:10:28;-1.10;99.90
43143;DHT22;28750;59.842;17.584;2023-03-01T05:12:56;-1.20;99.90
43143;DHT22;28750;59.842;17.584;2023-03-01T05:15:25;-1.30;99.90
43143;DHT22;28750;59.842;17.584;2023-03-01T05:17:54;-1.20;99.90
43143;DHT22;28750;59.842;17.584;2023-03-01T05:20:23;-1.20;99.90
43143;DHT22;28750;59.842;17.584;2023-03-01T05:22:52;-1.30;99.90
43143;DHT22;28750;59.842;17.584;2023-03-01T05:25:21;-1.20;99.90
43143;DHT22;28750;59.842;17.584;2023-03-01T05:27:48;-1.30;99.90
43143;DHT22;28750;59.842;17.584;2023-03-01T05:30:15;-1.20;99.90
43143;DHT22;28750;59.842;17.584;2023-03-01T05:32:47;-1.10;99.90
43143;DHT22;28750;59.842;17.584;2023-03-01T05:35:17;-1.10;99.90
43143;DHT22;28750;59.842;17.584;2023-03-01T05:37:47;-1.10;99.90
43143;DHT22;28750;59.842;17.584;2023-03-01T05:40:16;-1.20;99.90
43143;DHT22;28750;59.842;17.584;2023-03-01T05:42:56;-1.00;99.90
43143;DHT22;28750;59.842;17.584;2023-03-01T05:45:25;-1.00;99.90
43143;DHT22;28750;59.842;17.584;2023-03-01T05:47:53;-1.10;99.90
43143;DHT22;28750;59.842;17.584;2023-03-01T05:50:26;-1.10;99.90
43143;DHT22;28750;59.842;17.584;2023-03-01T05:52:59;-1.20;99.90
43143;DHT22;28750;59.842;17.584;2023-03-01T05:55:28;-1.00;99.90
43143;DHT22;28750;59.842;17.584;2023-03-01T05:57:59;-1.00;99.90
43143;DHT22;28750;59.842;17.584;2023-03-01T06:00:27;-1.20;99.90
43143;DHT22;28750;59.842;17.584;2023-03-01T06:02:55;-1.20;99.90
43143;DHT22;28750;59.842;17.584;2023-03-01T06:05:23;-1.30;99.90
43143;DHT22;28750;59.842;17.584;2023-03-01T06:07:50;-1.20;99.90
43143;DHT22;28750;59.842;17.584;2023-03-01T06:10:20;-1.20;99.90
43143;DHT22;28750;59.842;17.584;2023-03-01T06:12:47;-1.10;99.90
43143;DHT22;28750;59.842;17.584;2023-03-01T06:15:16;-1.00;99.90
43143;DHT22;28750;59.842;17.584;2023-03-01T06:17:44;-1.20;99.90
43143;DHT22;28750;59.842;17.584;2023-03-01T06:20:20;-1.20;99.90
43143;DHT22;28750;59.842;17.584;2023-03-01T06:22:48;-1.20;99.90
43143;DHT22;28750;59.842;17.584;2023-03-01T06:25:18;-1.10;99.90
43143;DHT22;28750;59.842;17.584;2023-03-01T06:27:46;-1.00;99.90
43143;DHT22;28750;59.842;17.584;2023-03-01T06:30:16;-1.00;99.90
43143;DHT22;28750;59.842;17.584;2023-03-01T06:32:43;-0.90;99.90
43143;DHT22;28750;59.842;17.584;2023-03-01T06:35:12;-0.60;99.90
43143;DHT22;28750;59.842;17.584;2023-03-01T06:37:40;-0.70;99.90
43143;DHT22;28750;59.842;17.584;2023-03-01T06:40:09;-0.60;99.90
43143;DHT22;28750;59.842;17.584;2023-03-01T06:42:38;-0.60;99.90
43143;DHT22;28750;59.842;17.584;2023-03-01T06:45:06;-0.40;99.90
43143;DHT22;28750;59.842;17.584;2023-03-01T06:47:33;-0.50;99.90
43143;DHT22;28750;59.842;17.584;2023-03-01T06:50:01;-0.30;99.90
43143;DHT22;28750;59.842;17.584;2023-03-01T06:52:29;-0.30;99.90
43143;DHT22;28750;59.842;17.584;2023-03-01T06:54:56;-0.40;99.90
43143;DHT22;28750;59.842;17.584;2023-03-01T06:57:23;-0.20;99.90
43143;DHT22;28750;59.842;17.584;2023-03-01T06:59:50;-0.20;99.90
43143;DHT22;28750;59.842;17.584;2023-03-01T07:02:17;-0.40;91.70
43143;DHT22;28750;59.842;17.584;2023-03-01T07:04:44;-0.30;99.90
43143;DHT22;28750;59.842;17.584;2023-03-01T07:07:11;-0.20;74.70
43143;DHT22;28750;59.842;17.584;2023-03-01T07:09:38;0.00;30.00
43143;DHT22;28750;59.842;17.584;2023-03-01T07:12:05;-0.10;1.00
43143;DHT22;28750;59.842;17.584;2023-03-01T07:14:33;-0.20;1.00
43143;DHT22;28750;59.842;17.584;2023-03-01T07:17:00;-0.10;1.00
43143;DHT22;28750;59.842;17.584;2023-03-01T07:19:27;0.00;1.00
43143;DHT22;28750;59.842;17.584;2023-03-01T07:21:54;0.10;1.00
43143;DHT22;28750;59.842;17.584;2023-03-01T07:24:21;0.20;1.00
43143;DHT22;28750;59.842;17.584;2023-03-01T07:26:51;0.20;1.00
43143;DHT22;28750;59.842;17.584;2023-03-01T07:29:19;0.30;1.00
43143;DHT22;28750;59.842;17.584;2023-03-01T07:31:46;0.60;1.00
43143;DHT22;28750;59.842;17.584;2023-03-01T07:34:13;0.60;99.90
43143;DHT22;28750;59.842;17.584;2023-03-01T07:36:39;0.80;99.90
43143;DHT22;28750;59.842;17.584;2023-03-01T07:39:09;0.90;99.90
43143;DHT22;28750;59.842;17.584;2023-03-01T07:41:37;0.90;99.90
43143;DHT22;28750;59.842;17.584;2023-03-01T07:44:04;0.90;52.30
43143;DHT22;28750;59.842;17.584;2023-03-01T07:46:31;0.80;1.00
43143;DHT22;28750;59.842;17.584;2023-03-01T07:48:58;0.90;1.00
43143;DHT22;28750;59.842;17.584;2023-03-01T07:51:25;1.00;1.00
43143;DHT22;28750;59.842;17.584;2023-03-01T07:53:52;1.10;99.90
43143;DHT22;28750;59.842;17.584;2023-03-01T07:56:19;1.20;99.90
43143;DHT22;28750;59.842;17.584;2023-03-01T07:58:47;1.40;95.20
43143;DHT22;28750;59.842;17.584;2023-03-01T08:01:17;1.60;99.90
43143;DHT22;28750;59.842;17.584;2023-03-01T08:03:44;1.60;99.90
43143;DHT22;28750;59.842;17.584;2023-03-01T08:06:12;1.50;99.90
43143;DHT22;28750;59.842;17.584;2023-03-01T08:08:40;1.50;99.90
43143;DHT22;28750;59.842;17.584;2023-03-01T08:11:09;1.50;99.90
43143;DHT22;28750;59.842;17.584;2023-03-01T08:13:37;1.60;99.90
43143;DHT22;28750;59.842;17.584;2023-03-01T08:16:06;1.90;92.00
43143;DHT22;28750;59.842;17.584;2023-03-01T08:18:33;1.90;1.00
43143;DHT22;28750;59.842;17.584;2023-03-01T08:21:05;1.90;1.00
43143;DHT22;28750;59.842;17.584;2023-03-01T08:23:32;2.10;99.90
43143;DHT22;28750;59.842;17.584;2023-03-01T08:26:04;2.10;99.90
43143;DHT22;28750;59.842;17.584;2023-03-01T08:28:33;2.20;99.90
43143;DHT22;28750;59.842;17.584;2023-03-01T08:31:00;2.20;99.90
43143;DHT22;28750;59.842;17.584;2023-03-01T08:33:27;2.50;5.40
43143;DHT22;28750;59.842;17.584;2023-03-01T08:36:03;2.50;29.00
43143;DHT22;28750;59.842;17.584;2023-03-01T08:38:30;2.80;99.90
43143;DHT22;28750;59.842;17.584;2023-03-01T08:41:00;2.90;99.90
43143;DHT22;28750;59.842;17.584;2023-03-01T08:43:27;2.90;99.90
43143;DHT22;28750;59.842;17.584;2023-03-01T08:45:54;3.10;99.90
43143;DHT22;28750;59.842;17.584;2023-03-01T08:48:21;3.20;1.00
43143;DHT22;28750;59.842;17.584;2023-03-01T08:50:48;3.00;1.00
43143;DHT22;28750;59.842;17.584;2023-03-01T08:53:15;3.00;1.00
43143;DHT22;28750;59.842;17.584;2023-03-01T08:55:42;3.10;30.90
43143;DHT22;28750;59.842;17.584;2023-03-01T08:58:09;3.20;37.50
43143;DHT22;28750;59.842;17.584;2023-03-01T09:00:37;3.40;1.00
43143;DHT22;28750;59.842;17.584;2023-03-01T09:03:04;3.60;99.90
43143;DHT22;28750;59.842;17.584;2023-03-01T09:05:34;3.60;99.90
43143;DHT22;28750;59.842;17.584;2023-03-01T09:08:03;3.50;99.90
43143;DHT22;28750;59.842;17.584;2023-03-01T09:10:31;3.80;99.90
43143;DHT22;28750;59.842;17.584;2023-03-01T09:12:58;3.90;99.90
43143;DHT22;28750;59.842;17.584;2023-03-01T09:15:25;4.10;76.00
43143;DHT22;28750;59.842;17.584;2023-03-01T09:17:52;4.20;1.00
43143;DHT22;28750;59.842;17.584;2023-03-01T09:20:19;4.20;1.00
43143;DHT22;28750;59.842;17.584;2023-03-01T09:22:46;4.10;48.70
43143;DHT22;28750;59.842;17.584;2023-03-01T09:25:13;4.20;99.90
43143;DHT22;28750;59.842;17.584;2023-03-01T09:27:40;4.40;51.10
43143;DHT22;28750;59.842;17.584;2023-03-01T09:30:08;4.70;1.00
43143;DHT22;28750;59.842;17.584;2023-03-01T09:32:35;4.90;99.90
43143;DHT22;28750;59.842;17.584;2023-03-01T09:35:02;5.00;99.90
43143;DHT22;28750;59.842;17.584;2023-03-01T09:37:34;5.20;76.70
43143;DHT22;28750;59.842;17.584;2023-03-01T09:40:04;5.30;90.30
43143;DHT22;28750;59.842;17.584;2023-03-01T09:42:34;5.30;99.90
43143;DHT22;28750;59.842;17.584;2023-03-01T09:45:11;5.40;87.60
43143;DHT22;28750;59.842;17.584;2023-03-01T09:47:40;5.70;27.30
43143;DHT22;28750;59.842;17.584;2023-03-01T09:50:14;5.80;1.00
43143;DHT22;28750;59.842;17.584;2023-03-01T09:52:47;6.00;99.90
43143;DHT22;28750;59.842;17.584;2023-03-01T09:56:16;6.30;99.90
43143;DHT22;28750;59.842;17.584;2023-03-01T09:58:46;6.50;99.90
43143;DHT22;28750;59.842;17.584;2023-03-01T10:01:37;6.60;99.90
43143;DHT22;28750;59.842;17.584;2023-03-01T10:07:19;7.10;99.90
43143;DHT22;28750;59.842;17.584;2023-03-01T10:09:48;7.20;53.10
43143;DHT22;28750;59.842;17.584;2023-03-01T10:12:22;7.30;1.00
43143;DHT22;28750;59.842;17.584;2023-03-01T10:17:51;8.00;1.00
43143;DHT22;28750;59.842;17.584;2023-03-01T10:20:20;7.90;1.00
43143;DHT22;28750;59.842;17.584;2023-03-01T10:22:50;7.70;99.90
43143;DHT22;28750;59.842;17.584;2023-03-01T10:25:47;8.10;99.90
43143;DHT22;28750;59.842;17.584;2023-03-01T10:28:50;8.30;99.90
43143;DHT22;28750;59.842;17.584;2023-03-01T10:31:25;8.40;99.90
43143;DHT22;28750;59.842;17.584;2023-03-01T10:33:55;8.00;99.90
43143;DHT22;28750;59.842;17.584;2023-03-01T10:36:24;8.60;99.90
43143;DHT22;28750;59.842;17.584;2023-03-01T10:38:56;8.80;99.90
43143;DHT22;28750;59.842;17.584;2023-03-01T10:41:27;8.40;99.90
43143;DHT22;28750;59.842;17.584;2023-03-01T10:43:56;8.80;99.90
43143;DHT22;28750;59.842;17.584;2023-03-01T10:46:32;9.20;99.90
43143;DHT22;28750;59.842;17.584;2023-03-01T10:49:21;9.00;99.90
43143;DHT22;28750;59.842;17.584;2023-03-01T10:51:52;8.70;99.90
43143;DHT22;28750;59.842;17.584;2023-03-01T10:54:31;8.50;93.10
43143;DHT22;28750;59.842;17.584;2023-03-01T10:57:02;9.10;99.90
43143;DHT22;28750;59.842;17.584;2023-03-01T10:59:34;9.00;99.90
43143;DHT22;28750;59.842;17.584;2023-03-01T11:02:28;9.10;93.10
43143;DHT22;28750;59.842;17.584;2023-03-01T11:05:13;9.40;99.90
43143;DHT22;28750;59.842;17.584;2023-03-01T11:07:53;9.60;99.90
43143;DHT22;28750;59.842;17.584;2023-03-01T11:10:35;9.20;1.00
43143;DHT22;28750;59.842;17.584;2023-03-01T11:13:17;9.10;18.70
43143;DHT22;28750;59.842;17.584;2023-03-01T11:16:10;9.40;19.40
43143;DHT22;28750;59.842;17.584;2023-03-01T11:18:39;9.10;1.00
43143;DHT22;28750;59.842;17.584;2023-03-01T11:21:07;8.90;1.00
43143;DHT22;28750;59.842;17.584;2023-03-01T11:23:37;9.40;1.00
43143;DHT22;28750;59.842;17.584;2023-03-01T11:26:09;9.20;29.40
43143;DHT22;28750;59.842;17.584;2023-03-01T11:28:39;9.50;60.20
43143;DHT22;28750;59.842;17.584;2023-03-01T11:31:09;9.40;3.40
43143;DHT22;28750;59.842;17.584;2023-03-01T11:33:49;9.20;41.10
43143;DHT22;28750;59.842;17.584;2023-03-01T11:36:32;8.70;1.00
43143;DHT22;28750;59.842;17.584;2023-03-01T11:41:57;9.20;1.00
43143;DHT22;28750;59.842;17.584;2023-03-01T11:44:28;9.40;20.60
43143;DHT22;28750;59.842;17.584;2023-03-01T11:47:07;9.40;1.00
43143;DHT22;28750;59.842;17.584;2023-03-01T11:53:26;9.40;1.00
43143;DHT22;28750;59.842;17.584;2023-03-01T12:05:02;8.90;1.00
43143;DHT22;28750;59.842;17.584;2023-03-01T12:10:50;8.30;1.00
43143;DHT22;28750;59.842;17.584;2023-03-01T12:18:56;8.00;15.60
43143;DHT22;28750;59.842;17.584;2023-03-01T12:21:47;8.00;1.00
43143;DHT22;28750;59.842;17.584;2023-03-01T12:39:19;8.30;1.00
43143;DHT22;28750;59.842;17.584;2023-03-01T12:42:30;8.20;1.00
43143;DHT22;28750;59.842;17.584;2023-03-01T12:48:08;7.90;1.00
43143;DHT22;28750;59.842;17.584;2023-03-01T12:50:48;7.70;1.00
43143;DHT22;28750;59.842;17.584;2023-03-01T12:53:26;7.60;1.00
43143;DHT22;28750;59.842;17.584;2023-03-01T12:55:58;7.30;95.20
43143;DHT22;28750;59.842;17.584;2023-03-01T13:04:38;7.40;46.20
43143;DHT22;28750;59.842;17.584;2023-03-01T13:12:44;7.30;39.20
43143;DHT22;28750;59.842;17.584;2023-03-01T13:15:28;7.50;10.20
43143;DHT22;28750;59.842;17.584;2023-03-01T13:20:45;7.80;1.00
43143;DHT22;28750;59.842;17.584;2023-03-01T13:33:53;8.30;1.00
43143;DHT22;28750;59.842;17.584;2023-03-01T13:49:29;7.90;1.00
43143;DHT22;28750;59.842;17.584;2023-03-01T13:51:58;7.80;1.00
43143;DHT22;28750;59.842;17.584;2023-03-01T13:54:33;7.80;1.00
43143;DHT22;28750;59.842;17.584;2023-03-01T13:57:01;7.70;1.00
43143;DHT22;28750;59.842;17.584;2023-03-01T13:59:29;7.70;1.00
43143;DHT22;28750;59.842;17.584;2023-03-01T14:02:00;7.70;12.60
43143;DHT22;28750;59.842;17.584;2023-03-01T14:04:30;7.50;17.90
43143;DHT22;28750;59.842;17.584;2023-03-01T14:07:19;7.50;66.00
43143;DHT22;28750;59.842;17.584;2023-03-01T14:10:07;7.30;99.90
43143;DHT22;28750;59.842;17.584;2023-03-01T14:12:44;7.20;99.90
43143;DHT22;28750;59.842;17.584;2023-03-01T14:15:26;7.10;99.90
43143;DHT22;28750;59.842;17.584;2023-03-01T14:18:20;7.10;99.90
43143;DHT22;28750;59.842;17.584;2023-03-01T14:20:49;7.20;99.90
43143;DHT22;28750;59.842;17.584;2023-03-01T14:23:25;7.30;99.90
43143;DHT22;28750;59.842;17.584;2023-03-01T14:25:57;7.40;99.90
43143;DHT22;28750;59.842;17.584;2023-03-01T14:30:57;7.30;99.90
43143;DHT22;28750;59.842;17.584;2023-03-01T14:33:33;7.00;99.90
43143;DHT22;28750;59.842;17.584;2023-03-01T14:38:35;6.90;99.90
43143;DHT22;28750;59.842;17.584;2023-03-01T14:41:12;6.80;99.90
43143;DHT22;28750;59.842;17.584;2023-03-01T14:44:07;6.80;99.90
43143;DHT22;28750;59.842;17.584;2023-03-01T14:46:40;6.70;99.90
43143;DHT22;28750;59.842;17.584;2023-03-01T14:49:20;6.90;99.90
43143;DHT22;28750;59.842;17.584;2023-03-01T14:52:02;7.10;99.90
43143;DHT22;28750;59.842;17.584;2023-03-01T14:54:49;6.80;99.90
43143;DHT22;28750;59.842;17.584;2023-03-01T14:57:24;6.80;99.90
43143;DHT22;28750;59.842;17.584;2023-03-01T15:00:03;6.60;99.90
43143;DHT22;28750;59.842;17.584;2023-03-01T15:02:33;6.50;1.00
43143;DHT22;28750;59.842;17.584;2023-03-01T15:05:03;6.30;1.00
43143;DHT22;28750;59.842;17.584;2023-03-01T15:07:34;6.50;1.00
43143;DHT22;28750;59.842;17.584;2023-03-01T15:10:04;6.30;1.00
43143;DHT22;28750;59.842;17.584;2023-03-01T15:14:58;6.20;18.90
43143;DHT22;28750;59.842;17.584;2023-03-01T15:17:32;6.20;48.60
43143;DHT22;28750;59.842;17.584;2023-03-01T15:20:22;6.20;39.20
43143;DHT22;28750;59.842;17.584;2023-03-01T15:22:51;6.20;1.00
43143;DHT22;28750;59.842;17.584;2023-03-01T15:25:23;6.40;1.00
43143;DHT22;28750;59.842;17.584;2023-03-01T15:27:53;6.00;88.40
43143;DHT22;28750;59.842;17.584;2023-03-01T15:30:25;5.80;99.90
43143;DHT22;28750;59.842;17.584;2023-03-01T15:35:55;5.60;99.90
43143;DHT22;28750;59.842;17.584;2023-03-01T15:38:54;5.70;99.90
43143;DHT22;28750;59.842;17.584;2023-03-01T15:41:29;5.80;99.90
43143;DHT22;28750;59.842;17.584;2023-03-01T15:44:14;5.80;99.90
43143;DHT22;28750;59.842;17.584;2023-03-01T15:46:46;5.70;99.90
43143;DHT22;28750;59.842;17.584;2023-03-01T15:49:30;5.60;99.90
43143;DHT22;28750;59.842;17.584;2023-03-01T15:51:59;5.70;99.90
43143;DHT22;28750;59.842;17.584;2023-03-01T15:54:27;5.60;99.90
43143;DHT22;28750;59.842;17.584;2023-03-01T15:56:54;5.60;99.90
43143;DHT22;28750;59.842;17.584;2023-03-01T15:59:22;5.90;99.90
43143;DHT22;28750;59.842;17.584;2023-03-01T16:01:49;5.80;99.90
43143;DHT22;28750;59.842;17.584;2023-03-01T16:04:18;5.70;99.90
43143;DHT22;28750;59.842;17.584;2023-03-01T16:06:52;5.80;99.90
43143;DHT22;28750;59.842;17.584;2023-03-01T16:09:24;5.70;99.90
43143;DHT22;28750;59.842;17.584;2023-03-01T16:11:52;5.50;99.90
43143;DHT22;28750;59.842;17.584;2023-03-01T16:14:20;5.30;99.90
43143;DHT22;28750;59.842;17.584;2023-03-01T16:16:47;5.50;99.90
43143;DHT22;28750;59.842;17.584;2023-03-01T16:19:15;5.40;99.90
43143;DHT22;28750;59.842;17.584;2023-03-01T16:21:43;5.40;99.90
43143;DHT22;28750;59.842;17.584;2023-03-01T16:24:13;5.30;99.90
43143;DHT22;28750;59.842;17.584;2023-03-01T16:26:40;5.50;99.90
43143;DHT22;28750;59.842;17.584;2023-03-01T16:29:07;5.40;99.90
43143;DHT22;28750;59.842;17.584;2023-03-01T16:31:34;5.40;99.90
43143;DHT22;28750;59.842;17.584;2023-03-01T16:34:01;5.30;99.90
43143;DHT22;28750;59.842;17.584;2023-03-01T16:36:28;5.40;99.90
43143;DHT22;28750;59.842;17.584;2023-03-01T16:38:58;5.20;99.90
43143;DHT22;28750;59.842;17.584;2023-03-01T16:41:26;5.30;99.90
43143;DHT22;28750;59.842;17.584;2023-03-01T16:43:53;5.20;99.90
43143;DHT22;28750;59.842;17.584;2023-03-01T16:46:25;5.10;1.00
43143;DHT22;28750;59.842;17.584;2023-03-01T16:48:53;5.10;1.00
43143;DHT22;28750;59.842;17.584;2023-03-01T16:51:23;5.10;1.00
43143;DHT22;28750;59.842;17.584;2023-03-01T16:53:53;5.10;1.00
43143;DHT22;28750;59.842;17.584;2023-03-01T16:56:20;5.10;1.00
43143;DHT22;28750;59.842;17.584;2023-03-01T16:58:47;5.20;99.90
43143;DHT22;28750;59.842;17.584;2023-03-01T17:01:17;5.10;1.00
43143;DHT22;28750;59.842;17.584;2023-03-01T17:03:45;5.00;1.00
43143;DHT22;28750;59.842;17.584;2023-03-01T17:06:16;5.20;1.00
43143;DHT22;28750;59.842;17.584;2023-03-01T17:08:45;5.10;1.00
43143;DHT22;28750;59.842;17.584;2023-03-01T17:11:15;5.00;1.00
43143;DHT22;28750;59.842;17.584;2023-03-01T17:13:43;5.10;1.00
43143;DHT22;28750;59.842;17.584;2023-03-01T17:16:13;5.00;1.00
43143;DHT22;28750;59.842;17.584;2023-03-01T17:18:41;4.90;1.00
43143;DHT22;28750;59.842;17.584;2023-03-01T17:21:09;5.00;29.40
43143;DHT22;28750;59.842;17.584;2023-03-01T17:23:37;4.90;36.90
43143;DHT22;28750;59.842;17.584;2023-03-01T17:26:05;4.80;72.70
43143;DHT22;28750;59.842;17.584;2023-03-01T17:28:33;4.90;65.60
43143;DHT22;28750;59.842;17.584;2023-03-01T17:31:02;5.00;1.00
43143;DHT22;28750;59.842;17.584;2023-03-01T17:33:29;4.90;29.00
43143;DHT22;28750;59.842;17.584;2023-03-01T17:35:57;4.70;99.90
43143;DHT22;28750;59.842;17.584;2023-03-01T17:38:24;4.60;99.90
43143;DHT22;28750;59.842;17.584;2023-03-01T17:40:51;4.60;99.90
43143;DHT22;28750;59.842;17.584;2023-03-01T17:43:18;4.70;99.90
43143;DHT22;28750;59.842;17.584;2023-03-01T17:45:45;4.70;99.90